Tabatinga Airport
SBTT : rendu visible

Aérodrome :











RETROUVEZ-NOUS SUR...

 
LOGIN :

S'inscrire | Disclaimer

   EN    FR    IT 

 









Légende :    VFR   VFR Marginal   IFR   IFR Intensif   IFR Très Intensif
Visi : 
Plafond : 
>= 8 km
>= 3000ft
5 à 8 km
1000 à 3000 ft
1500m à 5 km
500 à 1000 ft
800 à 1500m
200 à 500 ft
< 800m
< 200 ft
Symboles :   Orages  Brouillard  Fortes neiges  Fortes précipitations  Vent > 20 kt






- Altitude de l'aérodrome : 279 ft
- Code IATA : TBT


SBTT - Tabatinga

DERNIER METAR :
  • 121800Z 29006KT 9999 FEW025 30/24 Q1011

METARs EXPIRÉS :
  • 121700Z 29006KT 9999 FEW020 30/24 Q1012
  • 121600Z 27005KT 9999 FEW020 28/24 Q1012

TAF TAF SBTT
Valide du 12 à 18h jusqu'au 13 à 18h UTC


121500Z 1218/1318 34005KT 9999 SCT025 TX30/1218Z TN24/1309Z
BECMG 1218/1220 06005KT TS SCT020 FEW028CB
BECMG 1221/1223 12005KT NSW FEW025
BECMG 1309/1311 03005KT BKN010
BECMG 1312/1314 FEW016
BECMG 1315/1317 06009KT SCT025 FEW028TCU RMK PDL
FIR SBAZ / Amérique du Sud



MET'MAP, la Météo Aéronautique d'un coup d'oeil ! - Copyright ORBIFLY Décembre 2007 - Disclaimer

ORBIFLY MET'MAP TEAM :

Programmation & Développement : Alexandra Zaïnal
Sur une idée originale de : Baudouin d'Aumeries
Assistance à la programmation : Marc-Olivier Méhu
Soutien technique & logistique : Manuel Goepfert

Contact : metmap@orbifly.com




SOURCES & CREDITS :

   NOAA       Earth
Advisory